sensor_id;sensor_type;location;lat;lon;timestamp;pressure;altitude;pressure_sealevel;temperature;humidity
74075;BME280;62428;51.412;5.432;2022-11-25T00:01:41;100783.28;;;8.72;86.41
74075;BME280;62428;51.412;5.432;2022-11-25T00:04:06;100790.25;;;8.73;86.74
74075;BME280;62428;51.412;5.432;2022-11-25T00:06:33;100790.75;;;8.75;86.46
74075;BME280;62428;51.412;5.432;2022-11-25T00:09:04;100796.63;;;8.77;86.73
74075;BME280;62428;51.412;5.432;2022-11-25T00:11:31;100791.28;;;8.77;86.77
74075;BME280;62428;51.412;5.432;2022-11-25T00:13:58;100785.63;;;8.78;86.48
74075;BME280;62428;51.412;5.432;2022-11-25T00:16:24;100788.31;;;8.78;86.61
74075;BME280;62428;51.412;5.432;2022-11-25T00:18:51;100782.44;;;8.76;86.99
74075;BME280;62428;51.412;5.432;2022-11-25T00:21:19;100784.59;;;8.74;86.92
74075;BME280;62428;51.412;5.432;2022-11-25T00:23:50;100786.22;;;8.70;87.54
74075;BME280;62428;51.412;5.432;2022-11-25T00:26:16;100781.97;;;8.69;87.03
74075;BME280;62428;51.412;5.432;2022-11-25T00:28:44;100779.00;;;8.71;87.47
74075;BME280;62428;51.412;5.432;2022-11-25T00:31:14;100773.88;;;8.74;86.89
74075;BME280;62428;51.412;5.432;2022-11-25T00:33:40;100776.53;;;8.74;87.28
74075;BME280;62428;51.412;5.432;2022-11-25T00:36:14;100773.06;;;8.74;87.64
74075;BME280;62428;51.412;5.432;2022-11-25T00:38:40;100770.41;;;8.74;87.68
74075;BME280;62428;51.412;5.432;2022-11-25T00:41:05;100768.50;;;8.74;87.45
74075;BME280;62428;51.412;5.432;2022-11-25T00:43:49;100766.94;;;8.73;87.79
74075;BME280;62428;51.412;5.432;2022-11-25T00:46:33;100759.97;;;8.72;87.73
74075;BME280;62428;51.412;5.432;2022-11-25T00:48:58;100755.69;;;8.71;87.61
74075;BME280;62428;51.412;5.432;2022-11-25T00:51:24;100761.06;;;8.71;87.92
74075;BME280;62428;51.412;5.432;2022-11-25T00:53:49;100765.63;;;8.71;87.79
74075;BME280;62428;51.412;5.432;2022-11-25T00:56:15;100762.13;;;8.70;88.08
74075;BME280;62428;51.412;5.432;2022-11-25T00:58:42;100759.44;;;8.70;88.30
74075;BME280;62428;51.412;5.432;2022-11-25T01:01:07;100777.13;;;8.71;88.63
74075;BME280;62428;51.412;5.432;2022-11-25T01:03:33;100772.84;;;8.70;88.14
74075;BME280;62428;51.412;5.432;2022-11-25T01:06:05;100779.28;;;8.69;88.06
74075;BME280;62428;51.412;5.432;2022-11-25T01:08:32;100775.25;;;8.72;88.04
74075;BME280;62428;51.412;5.432;2022-11-25T01:11:03;100774.44;;;8.71;88.50
74075;BME280;62428;51.412;5.432;2022-11-25T01:13:29;100777.13;;;8.71;88.28
74075;BME280;62428;51.412;5.432;2022-11-25T01:15:55;100775.25;;;8.72;88.44
74075;BME280;62428;51.412;5.432;2022-11-25T01:18:20;100769.59;;;8.73;88.29
74075;BME280;62428;51.412;5.432;2022-11-25T01:20:45;100769.34;;;8.75;88.00
74075;BME280;62428;51.412;5.432;2022-11-25T01:23:11;100782.44;;;8.76;88.36
74075;BME280;62428;51.412;5.432;2022-11-25T01:25:37;100777.88;;;8.77;88.22
74075;BME280;62428;51.412;5.432;2022-11-25T01:28:03;100778.16;;;8.75;88.60
74075;BME280;62428;51.412;5.432;2022-11-25T01:30:28;100788.88;;;8.75;88.59
74075;BME280;62428;51.412;5.432;2022-11-25T01:32:54;100790.75;;;8.75;88.66
74075;BME280;62428;51.412;5.432;2022-11-25T01:35:19;100792.63;;;8.74;88.86
74075;BME280;62428;51.412;5.432;2022-11-25T01:37:44;100789.16;;;8.74;89.04
74075;BME280;62428;51.412;5.432;2022-11-25T01:40:10;100791.03;;;8.73;88.94
74075;BME280;62428;51.412;5.432;2022-11-25T01:42:41;100792.09;;;8.72;89.01
74075;BME280;62428;51.412;5.432;2022-11-25T01:47:49;100800.97;;;8.73;89.19
74075;BME280;62428;51.412;5.432;2022-11-25T01:50:17;100802.25;;;8.75;89.04
74075;BME280;62428;51.412;5.432;2022-11-25T01:52:46;100816.44;;;8.76;89.13
74075;BME280;62428;51.412;5.432;2022-11-25T01:55:18;100819.38;;;8.79;88.63
74075;BME280;62428;51.412;5.432;2022-11-25T01:58:07;100826.63;;;8.79;89.42
74075;BME280;62428;51.412;5.432;2022-11-25T02:00:35;100828.22;;;8.80;89.21
74075;BME280;62428;51.412;5.432;2022-11-25T02:03:02;100829.81;;;8.81;89.06
74075;BME280;62428;51.412;5.432;2022-11-25T02:05:57;100832.50;;;8.81;89.24
74075;BME280;62428;51.412;5.432;2022-11-25T02:08:22;100838.63;;;8.81;89.05
74075;BME280;62428;51.412;5.432;2022-11-25T02:10:48;100848.81;;;8.84;89.03
74075;BME280;62428;51.412;5.432;2022-11-25T02:13:14;100853.09;;;8.85;89.15
74075;BME280;62428;51.412;5.432;2022-11-25T02:15:39;100836.75;;;8.87;88.82
74075;BME280;62428;51.412;5.432;2022-11-25T02:18:05;100846.38;;;8.88;89.15
74075;BME280;62428;51.412;5.432;2022-11-25T02:20:31;100851.72;;;8.88;89.27
74075;BME280;62428;51.412;5.432;2022-11-25T02:23:24;100859.78;;;8.88;89.17
74075;BME280;62428;51.412;5.432;2022-11-25T02:25:53;100868.91;;;8.87;89.88
74075;BME280;62428;51.412;5.432;2022-11-25T02:28:24;100867.28;;;8.86;89.80
74075;BME280;62428;51.412;5.432;2022-11-25T02:30:50;100871.59;;;8.87;90.31
74075;BME280;62428;51.412;5.432;2022-11-25T02:33:17;100874.53;;;8.85;90.58
74075;BME280;62428;51.412;5.432;2022-11-25T02:35:46;100874.28;;;8.82;90.65
74075;BME280;62428;51.412;5.432;2022-11-25T02:38:17;100883.41;;;8.81;90.88
74075;BME280;62428;51.412;5.432;2022-11-25T02:40:46;100884.75;;;8.78;91.17
74075;BME280;62428;51.412;5.432;2022-11-25T02:43:14;100889.59;;;8.76;91.72
74075;BME280;62428;51.412;5.432;2022-11-25T02:46:00;100896.28;;;8.74;91.38
74075;BME280;62428;51.412;5.432;2022-11-25T02:48:27;100896.56;;;8.72;91.43
74075;BME280;62428;51.412;5.432;2022-11-25T02:50:54;100891.50;;;8.71;92.27
74075;BME280;62428;51.412;5.432;2022-11-25T02:53:19;100880.25;;;8.69;91.86
74075;BME280;62428;51.412;5.432;2022-11-25T02:55:45;100866.34;;;8.66;92.57
74075;BME280;62428;51.412;5.432;2022-11-25T02:58:10;100858.06;;;8.63;92.33
74075;BME280;62428;51.412;5.432;2022-11-25T03:00:36;100846.31;;;8.59;92.85
74075;BME280;62428;51.412;5.432;2022-11-25T03:03:01;100842.59;;;8.55;92.71
74075;BME280;62428;51.412;5.432;2022-11-25T03:05:26;100838.56;;;8.52;93.16
74075;BME280;62428;51.412;5.432;2022-11-25T03:07:52;100823.06;;;8.49;92.88
74075;BME280;62428;51.412;5.432;2022-11-25T03:10:17;100789.88;;;8.45;93.02
74075;BME280;62428;51.412;5.432;2022-11-25T03:12:42;100796.84;;;8.41;92.75
74075;BME280;62428;51.412;5.432;2022-11-25T03:15:09;100805.72;;;8.36;93.17
74075;BME280;62428;51.412;5.432;2022-11-25T03:17:34;100807.88;;;8.34;93.43
74075;BME280;62428;51.412;5.432;2022-11-25T03:19:59;100796.63;;;8.32;93.69
74075;BME280;62428;51.412;5.432;2022-11-25T03:22:25;100775.78;;;8.29;93.41
74075;BME280;62428;51.412;5.432;2022-11-25T03:24:50;100785.97;;;8.27;93.56
74075;BME280;62428;51.412;5.432;2022-11-25T03:27:15;100779.00;;;8.26;93.36
74075;BME280;62428;51.412;5.432;2022-11-25T03:29:41;100789.19;;;8.24;94.22
74075;BME280;62428;51.412;5.432;2022-11-25T03:32:06;100815.44;;;8.22;94.30
74075;BME280;62428;51.412;5.432;2022-11-25T03:34:32;100831.78;;;8.20;94.31
74075;BME280;62428;51.412;5.432;2022-11-25T03:36:57;100858.81;;;8.19;94.40
74075;BME280;62428;51.412;5.432;2022-11-25T03:39:22;100868.97;;;8.17;94.33
74075;BME280;62428;51.412;5.432;2022-11-25T03:41:48;100875.41;;;8.16;94.61
74075;BME280;62428;51.412;5.432;2022-11-25T03:44:13;100873.81;;;8.15;94.22
74075;BME280;62428;51.412;5.432;2022-11-25T03:46:39;100880.22;;;8.14;94.41
74075;BME280;62428;51.412;5.432;2022-11-25T03:49:04;100871.41;;;8.13;94.66
74075;BME280;62428;51.412;5.432;2022-11-25T03:51:29;100877.03;;;8.12;94.65
74075;BME280;62428;51.412;5.432;2022-11-25T03:53:55;100899.53;;;8.11;94.88
74075;BME280;62428;51.412;5.432;2022-11-25T03:56:20;100897.13;;;8.09;94.78
74075;BME280;62428;51.412;5.432;2022-11-25T03:58:46;100895.50;;;8.08;94.73
74075;BME280;62428;51.412;5.432;2022-11-25T04:01:11;100894.19;;;8.05;95.02
74075;BME280;62428;51.412;5.432;2022-11-25T04:03:36;100898.75;;;8.05;94.75
74075;BME280;62428;51.412;5.432;2022-11-25T04:06:02;100898.19;;;8.03;94.79
74075;BME280;62428;51.412;5.432;2022-11-25T04:08:27;100892.59;;;7.99;94.77
74075;BME280;62428;51.412;5.432;2022-11-25T04:10:52;100892.88;;;7.98;94.91
74075;BME280;62428;51.412;5.432;2022-11-25T04:13:18;100907.31;;;7.97;94.97
74075;BME280;62428;51.412;5.432;2022-11-25T04:15:48;100913.22;;;7.94;94.92
74075;BME280;62428;51.412;5.432;2022-11-25T04:18:14;100909.22;;;7.91;95.09
74075;BME280;62428;51.412;5.432;2022-11-25T04:20:40;100919.13;;;7.91;95.28
74075;BME280;62428;51.412;5.432;2022-11-25T04:23:05;100921.78;;;7.91;95.21
74075;BME280;62428;51.412;5.432;2022-11-25T04:25:32;100916.97;;;7.87;95.25
74075;BME280;62428;51.412;5.432;2022-11-25T04:27:57;100916.44;;;7.85;95.29
74075;BME280;62428;51.412;5.432;2022-11-25T04:30:22;100923.13;;;7.83;95.11
74075;BME280;62428;51.412;5.432;2022-11-25T04:32:48;100925.28;;;7.81;95.10
74075;BME280;62428;51.412;5.432;2022-11-25T04:35:13;100929.31;;;7.78;95.09
74075;BME280;62428;51.412;5.432;2022-11-25T04:37:38;100941.06;;;7.77;95.24
74075;BME280;62428;51.412;5.432;2022-11-25T04:40:04;100949.34;;;7.76;95.24
74075;BME280;62428;51.412;5.432;2022-11-25T04:42:30;100948.81;;;7.74;95.13
74075;BME280;62428;51.412;5.432;2022-11-25T04:44:55;100949.66;;;7.69;95.02
74075;BME280;62428;51.412;5.432;2022-11-25T04:47:21;100953.63;;;7.66;95.31
74075;BME280;62428;51.412;5.432;2022-11-25T04:49:46;100961.13;;;7.64;94.76
74075;BME280;62428;51.412;5.432;2022-11-25T04:52:12;100957.13;;;7.62;95.04
74075;BME280;62428;51.412;5.432;2022-11-25T04:54:37;100959.53;;;7.58;94.74
74075;BME280;62428;51.412;5.432;2022-11-25T04:57:02;100966.25;;;7.56;94.83
74075;BME280;62428;51.412;5.432;2022-11-25T04:59:28;100966.50;;;7.54;94.48
74075;BME280;62428;51.412;5.432;2022-11-25T05:02:06;100964.34;;;7.51;94.82
74075;BME280;62428;51.412;5.432;2022-11-25T05:04:36;100968.63;;;7.47;94.51
74075;BME280;62428;51.412;5.432;2022-11-25T05:07:01;100982.25;;;7.45;94.49
74075;BME280;62428;51.412;5.432;2022-11-25T05:09:26;100981.72;;;7.43;94.66
74075;BME280;62428;51.412;5.432;2022-11-25T05:11:52;100983.88;;;7.41;94.92
74075;BME280;62428;51.412;5.432;2022-11-25T05:14:17;100983.06;;;7.41;95.11
74075;BME280;62428;51.412;5.432;2022-11-25T05:16:42;100978.53;;;7.41;95.16
74075;BME280;62428;51.412;5.432;2022-11-25T05:19:08;100973.44;;;7.40;95.15
74075;BME280;62428;51.412;5.432;2022-11-25T05:21:33;100978.00;;;7.39;95.24
74075;BME280;62428;51.412;5.432;2022-11-25T05:23:58;100976.66;;;7.37;94.92
74075;BME280;62428;51.412;5.432;2022-11-25T05:26:24;100974.22;;;7.35;95.01
74075;BME280;62428;51.412;5.432;2022-11-25T05:28:49;100972.91;;;7.32;95.13
74075;BME280;62428;51.412;5.432;2022-11-25T05:31:14;100983.31;;;7.29;94.98
74075;BME280;62428;51.412;5.432;2022-11-25T05:33:40;100985.47;;;7.27;95.29
74075;BME280;62428;51.412;5.432;2022-11-25T05:36:05;100979.28;;;7.26;95.33
74075;BME280;62428;51.412;5.432;2022-11-25T05:38:31;100971.81;;;7.23;95.40
74075;BME280;62428;51.412;5.432;2022-11-25T05:41:01;100987.88;;;7.23;95.36
74075;BME280;62428;51.412;5.432;2022-11-25T05:43:27;100985.72;;;7.20;95.38
74075;BME280;62428;51.412;5.432;2022-11-25T05:45:52;100983.84;;;7.21;95.35
74075;BME280;62428;51.412;5.432;2022-11-25T05:48:17;101000.94;;;7.20;95.50
74075;BME280;62428;51.412;5.432;2022-11-25T05:50:43;100997.75;;;7.18;95.31
74075;BME280;62428;51.412;5.432;2022-11-25T05:53:08;100999.06;;;7.15;95.29
74075;BME280;62428;51.412;5.432;2022-11-25T05:55:33;101008.16;;;7.14;95.47
74075;BME280;62428;51.412;5.432;2022-11-25T05:57:59;101003.88;;;7.13;95.25
74075;BME280;62428;51.412;5.432;2022-11-25T06:00:25;101009.22;;;7.13;95.20
74075;BME280;62428;51.412;5.432;2022-11-25T06:02:51;101004.94;;;7.12;95.11
74075;BME280;62428;51.412;5.432;2022-11-25T06:05:16;101012.97;;;7.12;95.27
74075;BME280;62428;51.412;5.432;2022-11-25T06:07:41;101015.63;;;7.12;95.24
74075;BME280;62428;51.412;5.432;2022-11-25T06:10:07;101009.72;;;7.10;95.06
74075;BME280;62428;51.412;5.432;2022-11-25T06:12:32;101004.69;;;7.08;95.17
74075;BME280;62428;51.412;5.432;2022-11-25T06:14:58;101008.41;;;7.07;94.94
74075;BME280;62428;51.412;5.432;2022-11-25T06:17:23;101012.94;;;7.07;95.37
74075;BME280;62428;51.412;5.432;2022-11-25T06:19:48;101015.09;;;7.05;95.00
74075;BME280;62428;51.412;5.432;2022-11-25T06:22:14;101018.81;;;7.04;95.11
74075;BME280;62428;51.412;5.432;2022-11-25T06:24:39;101030.00;;;7.01;95.08
74075;BME280;62428;51.412;5.432;2022-11-25T06:27:07;101036.19;;;7.01;95.52
74075;BME280;62428;51.412;5.432;2022-11-25T06:29:32;101035.34;;;7.01;95.61
74075;BME280;62428;51.412;5.432;2022-11-25T06:31:59;101037.50;;;6.99;95.63
74075;BME280;62428;51.412;5.432;2022-11-25T06:34:25;101044.97;;;6.97;95.54
74075;BME280;62428;51.412;5.432;2022-11-25T06:36:50;101043.09;;;6.97;95.26
74075;BME280;62428;51.412;5.432;2022-11-25T06:39:15;101050.56;;;6.95;95.09
74075;BME280;62428;51.412;5.432;2022-11-25T06:41:41;101046.03;;;6.90;95.26
74075;BME280;62428;51.412;5.432;2022-11-25T06:44:06;101061.50;;;6.88;95.23
74075;BME280;62428;51.412;5.432;2022-11-25T06:46:31;101067.66;;;6.89;95.12
74075;BME280;62428;51.412;5.432;2022-11-25T06:49:00;101065.47;;;6.86;94.87
74075;BME280;62428;51.412;5.432;2022-11-25T06:51:26;101071.91;;;6.85;95.15
74075;BME280;62428;51.412;5.432;2022-11-25T06:53:51;101068.41;;;6.84;95.33
74075;BME280;62428;51.412;5.432;2022-11-25T06:56:20;101063.88;;;6.80;94.89
74075;BME280;62428;51.412;5.432;2022-11-25T06:58:47;101065.75;;;6.79;94.71
74075;BME280;62428;51.412;5.432;2022-11-25T07:01:15;101065.75;;;6.79;95.01
74075;BME280;62428;51.412;5.432;2022-11-25T07:03:41;101068.41;;;6.79;94.88
74075;BME280;62428;51.412;5.432;2022-11-25T07:06:07;101066.25;;;6.76;94.66
74075;BME280;62428;51.412;5.432;2022-11-25T07:08:33;101071.59;;;6.76;95.04
74075;BME280;62428;51.412;5.432;2022-11-25T07:11:04;101070.81;;;6.76;95.15
74075;BME280;62428;51.412;5.432;2022-11-25T07:13:29;101073.19;;;6.77;95.08
74075;BME280;62428;51.412;5.432;2022-11-25T07:15:55;101085.50;;;6.78;95.16
74075;BME280;62428;51.412;5.432;2022-11-25T07:18:20;101093.75;;;6.77;95.15
74075;BME280;62428;51.412;5.432;2022-11-25T07:20:45;101092.41;;;6.74;94.63
74075;BME280;62428;51.412;5.432;2022-11-25T07:23:11;101094.00;;;6.75;94.90
74075;BME280;62428;51.412;5.432;2022-11-25T07:25:36;101102.31;;;6.73;95.03
74075;BME280;62428;51.412;5.432;2022-11-25T07:28:01;101110.56;;;6.72;95.17
74075;BME280;62428;51.412;5.432;2022-11-25T07:30:27;101124.72;;;6.72;95.13
74075;BME280;62428;51.412;5.432;2022-11-25T07:32:52;101124.97;;;6.71;95.15
74075;BME280;62428;51.412;5.432;2022-11-25T07:35:18;101125.22;;;6.69;94.97
74075;BME280;62428;51.412;5.432;2022-11-25T07:37:43;101131.38;;;6.70;95.02
74075;BME280;62428;51.412;5.432;2022-11-25T07:40:09;101129.78;;;6.69;94.89
74075;BME280;62428;51.412;5.432;2022-11-25T07:42:34;101135.09;;;6.69;95.01
74075;BME280;62428;51.412;5.432;2022-11-25T07:44:59;101141.50;;;6.68;95.04
74075;BME280;62428;51.412;5.432;2022-11-25T07:47:25;101152.19;;;6.68;94.95
74075;BME280;62428;51.412;5.432;2022-11-25T07:49:50;101156.47;;;6.69;95.34
74075;BME280;62428;51.412;5.432;2022-11-25T07:52:15;101159.94;;;6.69;95.22
74075;BME280;62428;51.412;5.432;2022-11-25T07:54:41;101162.34;;;6.71;95.00
74075;BME280;62428;51.412;5.432;2022-11-25T07:57:06;101165.03;;;6.71;95.17
74075;BME280;62428;51.412;5.432;2022-11-25T07:59:31;101170.38;;;6.71;95.18
74075;BME280;62428;51.412;5.432;2022-11-25T08:01:57;101182.66;;;6.72;95.24
74075;BME280;62428;51.412;5.432;2022-11-25T08:04:23;101186.13;;;6.72;95.78
74075;BME280;62428;51.412;5.432;2022-11-25T08:06:50;101194.69;;;6.74;95.90
74075;BME280;62428;51.412;5.432;2022-11-25T08:09:18;101194.69;;;6.74;95.96
74075;BME280;62428;51.412;5.432;2022-11-25T08:11:45;101193.66;;;6.76;95.53
74075;BME280;62428;51.412;5.432;2022-11-25T08:14:10;101189.09;;;6.76;96.04
74075;BME280;62428;51.412;5.432;2022-11-25T08:16:36;101197.91;;;6.77;96.11
74075;BME280;62428;51.412;5.432;2022-11-25T08:19:04;101204.03;;;6.77;95.94
74075;BME280;62428;51.412;5.432;2022-11-25T08:21:30;101200.88;;;6.80;96.29
74075;BME280;62428;51.412;5.432;2022-11-25T08:23:56;101214.50;;;6.84;96.50
74075;BME280;62428;51.412;5.432;2022-11-25T08:26:27;101211.88;;;6.89;96.44
74075;BME280;62428;51.412;5.432;2022-11-25T08:28:55;101217.53;;;6.92;96.50
74075;BME280;62428;51.412;5.432;2022-11-25T08:31:27;101221.28;;;6.97;96.51
74075;BME280;62428;51.412;5.432;2022-11-25T08:33:53;101217.03;;;7.01;96.44
74075;BME280;62428;51.412;5.432;2022-11-25T08:36:19;101217.31;;;7.04;96.35
74075;BME280;62428;51.412;5.432;2022-11-25T08:38:47;101222.69;;;7.09;96.48
74075;BME280;62428;51.412;5.432;2022-11-25T08:41:19;101220.31;;;7.13;96.40
74075;BME280;62428;51.412;5.432;2022-11-25T08:43:45;101221.13;;;7.19;96.34
74075;BME280;62428;51.412;5.432;2022-11-25T08:46:14;101226.75;;;7.22;96.42
74075;BME280;62428;51.412;5.432;2022-11-25T08:48:41;101226.00;;;7.27;96.34
74075;BME280;62428;51.412;5.432;2022-11-25T08:51:10;101238.06;;;7.35;96.61
74075;BME280;62428;51.412;5.432;2022-11-25T08:53:36;101238.09;;;7.40;95.95
74075;BME280;62428;51.412;5.432;2022-11-25T08:56:02;101237.03;;;7.46;95.89
74075;BME280;62428;51.412;5.432;2022-11-25T08:58:27;101232.25;;;7.53;95.95
74075;BME280;62428;51.412;5.432;2022-11-25T09:00:53;101235.50;;;7.60;95.81
74075;BME280;62428;51.412;5.432;2022-11-25T09:03:18;101239.28;;;7.69;95.98
74075;BME280;62428;51.412;5.432;2022-11-25T09:05:44;101240.13;;;7.80;95.81
74075;BME280;62428;51.412;5.432;2022-11-25T09:08:10;101243.38;;;7.93;95.06
74075;BME280;62428;51.412;5.432;2022-11-25T09:10:37;101242.59;;;8.02;94.90
74075;BME280;62428;51.412;5.432;2022-11-25T09:13:03;101255.16;;;8.12;94.45
74075;BME280;62428;51.412;5.432;2022-11-25T09:15:29;101248.25;;;8.21;94.04
74075;BME280;62428;51.412;5.432;2022-11-25T09:18:03;101250.94;;;8.32;93.50
74075;BME280;62428;51.412;5.432;2022-11-25T09:20:31;101250.69;;;8.38;93.37
74075;BME280;62428;51.412;5.432;2022-11-25T09:23:00;101258.47;;;8.45;93.57
74075;BME280;62428;51.412;5.432;2022-11-25T09:25:26;101264.09;;;8.49;93.22
74075;BME280;62428;51.412;5.432;2022-11-25T09:27:52;101267.88;;;8.53;93.08
74075;BME280;62428;51.412;5.432;2022-11-25T09:30:17;101271.59;;;8.57;92.82
74075;BME280;62428;51.412;5.432;2022-11-25T09:32:43;101273.22;;;8.63;93.06
74075;BME280;62428;51.412;5.432;2022-11-25T09:35:12;101286.59;;;8.68;92.79
74075;BME280;62428;51.412;5.432;2022-11-25T09:37:37;101287.97;;;8.71;92.58
74075;BME280;62428;51.412;5.432;2022-11-25T09:40:03;101291.44;;;8.71;92.91
74075;BME280;62428;51.412;5.432;2022-11-25T09:42:56;101287.16;;;8.75;92.32
74075;BME280;62428;51.412;5.432;2022-11-25T09:46:00;101298.94;;;8.84;92.22
74075;BME280;62428;51.412;5.432;2022-11-25T09:48:57;101305.09;;;8.90;91.79
74075;BME280;62428;51.412;5.432;2022-11-25T09:54:10;101315.56;;;9.02;92.33
74075;BME280;62428;51.412;5.432;2022-11-25T09:56:44;101304.81;;;9.07;91.21
74075;BME280;62428;51.412;5.432;2022-11-25T10:02:01;101319.56;;;9.15;90.93
74075;BME280;62428;51.412;5.432;2022-11-25T10:05:02;101324.38;;;9.18;91.40
74075;BME280;62428;51.412;5.432;2022-11-25T10:07:35;101323.03;;;9.20;90.64
74075;BME280;62428;51.412;5.432;2022-11-25T10:10:04;101326.50;;;9.21;89.92
74075;BME280;62428;51.412;5.432;2022-11-25T10:12:34;101322.47;;;9.23;90.53
74075;BME280;62428;51.412;5.432;2022-11-25T10:15:05;101334.56;;;9.26;89.28
74075;BME280;62428;51.412;5.432;2022-11-25T10:17:47;101336.97;;;9.28;89.33
74075;BME280;62428;51.412;5.432;2022-11-25T10:20:21;101347.69;;;9.28;90.35
74075;BME280;62428;51.412;5.432;2022-11-25T10:22:52;101356.28;;;9.30;89.34
74075;BME280;62428;51.412;5.432;2022-11-25T10:25:26;101359.47;;;9.32;89.58
74075;BME280;62428;51.412;5.432;2022-11-25T10:28:16;101363.50;;;9.34;90.30
74075;BME280;62428;51.412;5.432;2022-11-25T10:33:57;101362.69;;;9.34;88.68
74075;BME280;62428;51.412;5.432;2022-11-25T10:36:28;101363.50;;;9.34;88.53
74075;BME280;62428;51.412;5.432;2022-11-25T10:39:02;101368.06;;;9.34;88.26
74075;BME280;62428;51.412;5.432;2022-11-25T10:41:36;101374.22;;;9.34;88.85
74075;BME280;62428;51.412;5.432;2022-11-25T10:44:04;101377.72;;;9.35;88.04
74075;BME280;62428;51.412;5.432;2022-11-25T10:52:20;101384.69;;;9.41;88.28
74075;BME280;62428;51.412;5.432;2022-11-25T10:55:17;101382.78;;;9.41;89.28
74075;BME280;62428;51.412;5.432;2022-11-25T10:57:43;101383.63;;;9.42;88.49
74075;BME280;62428;51.412;5.432;2022-11-25T11:00:28;101397.56;;;9.44;88.62
74075;BME280;62428;51.412;5.432;2022-11-25T11:02:56;101392.72;;;9.46;87.85
74075;BME280;62428;51.412;5.432;2022-11-25T11:05:24;101397.00;;;9.47;87.42
74075;BME280;62428;51.412;5.432;2022-11-25T11:08:14;101399.16;;;9.50;87.72
74075;BME280;62428;51.412;5.432;2022-11-25T11:10:41;101405.31;;;9.51;88.20
74075;BME280;62428;51.412;5.432;2022-11-25T11:13:24;101403.97;;;9.53;88.03
74075;BME280;62428;51.412;5.432;2022-11-25T11:15:54;101408.00;;;9.56;86.46
74075;BME280;62428;51.412;5.432;2022-11-25T11:18:23;101412.03;;;9.58;86.45
74075;BME280;62428;51.412;5.432;2022-11-25T11:20:52;101420.34;;;9.62;85.44
74075;BME280;62428;51.412;5.432;2022-11-25T11:23:18;101423.81;;;9.62;85.86
74075;BME280;62428;51.412;5.432;2022-11-25T11:25:57;101429.44;;;9.66;86.00
74075;BME280;62428;51.412;5.432;2022-11-25T11:28:23;101436.66;;;9.71;84.19
74075;BME280;62428;51.412;5.432;2022-11-25T11:30:56;101439.88;;;9.73;84.62
74075;BME280;62428;51.412;5.432;2022-11-25T11:33:42;101438.28;;;9.77;84.98
74075;BME280;62428;51.412;5.432;2022-11-25T11:44:17;101447.66;;;9.90;83.68
74075;BME280;62428;51.412;5.432;2022-11-25T11:46:55;101454.34;;;9.92;83.39
74075;BME280;62428;51.412;5.432;2022-11-25T11:49:37;101454.88;;;9.94;84.47
74075;BME280;62428;51.412;5.432;2022-11-25T11:52:12;101450.03;;;9.96;82.79
74075;BME280;62428;51.412;5.432;2022-11-25T11:54:45;101465.88;;;9.98;83.21
74075;BME280;62428;51.412;5.432;2022-11-25T12:00:11;101467.75;;;10.03;81.50
74075;BME280;62428;51.412;5.432;2022-11-25T12:05:19;101464.00;;;9.98;83.06
74075;BME280;62428;51.412;5.432;2022-11-25T12:10:39;101456.50;;;10.00;81.26
74075;BME280;62428;51.412;5.432;2022-11-25T12:16:23;101479.03;;;10.05;83.13
74075;BME280;62428;51.412;5.432;2022-11-25T12:24:21;101476.84;;;10.12;81.30
74075;BME280;62428;51.412;5.432;2022-11-25T12:27:00;101481.13;;;10.13;80.79
74075;BME280;62428;51.412;5.432;2022-11-25T12:35:00;101494.28;;;10.19;81.08
74075;BME280;62428;51.412;5.432;2022-11-25T12:37:38;101491.34;;;10.21;80.93
74075;BME280;62428;51.412;5.432;2022-11-25T12:40:14;101500.19;;;10.22;81.11
74075;BME280;62428;51.412;5.432;2022-11-25T12:42:43;101499.91;;;10.23;80.74
74075;BME280;62428;51.412;5.432;2022-11-25T12:47:44;101501.50;;;10.29;80.73
74075;BME280;62428;51.412;5.432;2022-11-25T12:50:19;101512.84;;;10.31;80.92
74075;BME280;62428;51.412;5.432;2022-11-25T12:55:29;101517.09;;;10.32;80.58
74075;BME280;62428;51.412;5.432;2022-11-25T12:58:30;101531.88;;;10.35;82.06
74075;BME280;62428;51.412;5.432;2022-11-25T13:01:33;101530.53;;;10.37;81.88
74075;BME280;62428;51.412;5.432;2022-11-25T13:04:16;101540.19;;;10.38;81.72
74075;BME280;62428;51.412;5.432;2022-11-25T13:07:26;101537.78;;;10.37;82.49
74075;BME280;62428;51.412;5.432;2022-11-25T13:15:21;101549.03;;;10.29;81.96
74075;BME280;62428;51.412;5.432;2022-11-25T13:17:54;101545.28;;;10.30;81.63
74075;BME280;62428;51.412;5.432;2022-11-25T13:25:39;101556.59;;;10.32;81.61
74075;BME280;62428;51.412;5.432;2022-11-25T13:28:33;101560.63;;;10.34;82.07
74075;BME280;62428;51.412;5.432;2022-11-25T13:36:21;101571.34;;;10.45;82.12
74075;BME280;62428;51.412;5.432;2022-11-25T13:46:47;101572.97;;;10.41;81.53
74075;BME280;62428;51.412;5.432;2022-11-25T13:54:49;101596.34;;;10.35;81.70
74075;BME280;62428;51.412;5.432;2022-11-25T13:57:23;101596.09;;;10.31;81.73
74075;BME280;62428;51.412;5.432;2022-11-25T14:02:33;101604.66;;;10.28;81.54
74075;BME280;62428;51.412;5.432;2022-11-25T14:07:54;101605.72;;;10.22;82.93
74075;BME280;62428;51.412;5.432;2022-11-25T14:19:00;101619.16;;;10.12;83.13
74075;BME280;62428;51.412;5.432;2022-11-25T14:24:36;101619.69;;;10.09;82.55
74075;BME280;62428;51.412;5.432;2022-11-25T14:27:03;101623.72;;;10.06;83.01
74075;BME280;62428;51.412;5.432;2022-11-25T14:30:06;101633.41;;;10.02;83.36
74075;BME280;62428;51.412;5.432;2022-11-25T14:32:40;101635.81;;;9.98;82.94
74075;BME280;62428;51.412;5.432;2022-11-25T14:35:17;101637.94;;;9.96;83.25
74075;BME280;62428;51.412;5.432;2022-11-25T14:37:51;101639.56;;;9.97;83.03
74075;BME280;62428;51.412;5.432;2022-11-25T14:40:24;101652.97;;;9.97;83.75
74075;BME280;62428;51.412;5.432;2022-11-25T14:42:57;101656.47;;;9.98;84.12
74075;BME280;62428;51.412;5.432;2022-11-25T14:45:31;101659.41;;;9.96;84.28
74075;BME280;62428;51.412;5.432;2022-11-25T14:48:15;101665.06;;;9.95;84.15
74075;BME280;62428;51.412;5.432;2022-11-25T14:50:59;101661.56;;;9.94;84.14